createdAt,value
2018-06-25T00:01:49.303Z,102110.95
2018-06-25T00:04:18.124Z,102108.49
2018-06-25T00:06:46.954Z,102111.44
2018-06-25T00:09:15.810Z,102101.37
2018-06-25T00:11:44.639Z,102097.80
2018-06-25T00:14:13.770Z,102102.69
2018-06-25T00:16:42.972Z,102104.32
2018-06-25T00:19:11.833Z,102100.53
2018-06-25T00:21:41.298Z,102101.59
2018-06-25T00:24:10.440Z,102098.82
2018-06-25T00:26:39.301Z,102095.22
2018-06-25T00:29:08.364Z,102096.31
2018-06-25T00:31:37.186Z,102090.29
2018-06-25T00:34:06.108Z,102083.16
2018-06-25T00:36:35.399Z,102085.67
2018-06-25T00:39:04.359Z,102086.46
2018-06-25T00:41:33.201Z,102090.81
2018-06-25T00:44:02.340Z,102092.97
2018-06-25T00:46:31.628Z,102085.54
2018-06-25T00:49:00.522Z,102086.38
2018-06-25T00:51:29.735Z,102089.09
2018-06-25T00:53:58.851Z,102078.89
2018-06-25T00:56:28.598Z,102083.88
2018-06-25T00:59:08.487Z,102082.77
2018-06-25T01:01:37.308Z,102078.98
2018-06-25T01:04:06.467Z,102076.82
2018-06-25T01:06:35.355Z,102081.14
2018-06-25T01:09:06.290Z,102084.39
2018-06-25T01:11:35.101Z,102089.09
2018-06-25T01:14:04.249Z,102083.08
2018-06-25T01:16:33.371Z,102084.44
2018-06-25T01:19:02.188Z,102085.76
2018-06-25T01:21:31.607Z,102087.97
2018-06-25T01:24:01.343Z,102088.75
2018-06-25T01:26:30.543Z,102088.75
2018-06-25T01:28:59.822Z,102088.70
2018-06-25T01:31:28.930Z,102084.84
2018-06-25T01:33:57.748Z,102073.39
2018-06-25T01:36:26.613Z,102079.06
2018-06-25T01:38:56.010Z,102074.75
2018-06-25T01:41:25.326Z,102080.75
2018-06-25T01:43:54.741Z,102077.48
2018-06-25T01:46:23.589Z,102076.42
2018-06-25T01:48:52.704Z,102080.56
2018-06-25T01:51:21.560Z,102077.83
2018-06-25T01:53:50.396Z,102081.93
2018-06-25T01:56:19.904Z,102077.31
2018-06-25T01:58:49.048Z,102088.48
2018-06-25T02:01:17.864Z,102083.34
2018-06-25T02:03:46.706Z,102086.81
2018-06-25T02:06:15.508Z,102080.56
2018-06-25T02:08:44.783Z,102080.61
2018-06-25T02:11:14.247Z,102074.63
2018-06-25T02:13:43.386Z,102074.58
2018-06-25T02:16:12.723Z,102077.62
2018-06-25T02:18:41.912Z,102072.95
2018-06-25T02:21:10.764Z,102075.73
2018-06-25T02:23:39.930Z,102083.42
2018-06-25T02:26:09.383Z,102081.80
2018-06-25T02:28:38.544Z,102073.31
2018-06-25T02:31:07.369Z,102081.75
2018-06-25T02:33:36.598Z,102083.47
2018-06-25T02:36:06.011Z,102083.20
2018-06-25T02:38:34.897Z,102083.52
2018-06-25T02:41:03.761Z,102080.48
2018-06-25T02:43:32.626Z,102081.80
2018-06-25T02:46:01.513Z,102091.66
2018-06-25T02:48:30.441Z,102087.87
2018-06-25T02:50:59.510Z,102105.29
2018-06-25T02:53:28.654Z,102101.77
2018-06-25T02:55:58.137Z,102101.24
2018-06-25T02:58:27.002Z,102106.74
2018-06-25T03:00:56.033Z,102099.92
2018-06-25T03:03:25.146Z,102097.20
2018-06-25T03:05:54.338Z,102106.48
2018-06-25T03:08:23.134Z,102100.53
2018-06-25T03:10:51.979Z,102099.39
2018-06-25T03:13:20.839Z,102102.65
2018-06-25T03:15:49.947Z,102102.39
2018-06-25T03:18:19.435Z,102106.52
2018-06-25T03:20:48.586Z,102112.55
2018-06-25T03:23:17.426Z,102119.36
2018-06-25T03:25:46.850Z,102120.73
2018-06-25T03:28:15.731Z,102122.66
2018-06-25T03:30:44.949Z,102123.80
2018-06-25T03:33:14.051Z,102125.13
2018-06-25T03:35:42.908Z,102116.14
2018-06-25T03:38:12.137Z,102123.72
2018-06-25T03:40:40.924Z,102123.45
2018-06-25T03:43:09.809Z,102120.42
2018-06-25T03:45:39.111Z,102125.08
2018-06-25T03:48:08.187Z,102128.87
2018-06-25T03:50:36.968Z,102129.17
2018-06-25T03:53:06.952Z,102132.43
2018-06-25T03:55:36.058Z,102135.98
2018-06-25T03:58:04.941Z,102135.12
2018-06-25T04:00:34.207Z,102142.16
2018-06-25T04:03:03.024Z,102143.56
2018-06-25T04:05:31.920Z,102147.66
2018-06-25T04:08:01.340Z,102147.12
2018-06-25T04:10:30.747Z,102142.20
2018-06-25T04:12:59.605Z,102143.83
2018-06-25T04:15:29.382Z,102148.72
2018-06-25T04:17:58.599Z,102138.94
2018-06-25T04:20:27.742Z,102149.84
2018-06-25T04:25:59.612Z,102151.21
2018-06-25T04:28:28.547Z,102155.00
2018-06-25T04:30:58.148Z,102159.84
2018-06-25T04:33:27.417Z,102165.27
2018-06-25T04:35:56.536Z,102164.47
2018-06-25T04:38:25.805Z,102160.61
2018-06-25T04:40:54.609Z,102165.72
2018-06-25T04:43:23.705Z,102164.88
2018-06-25T04:45:52.600Z,102173.90
2018-06-25T04:48:21.759Z,102175.57
2018-06-25T04:50:50.555Z,102174.16
2018-06-25T04:53:19.706Z,102171.44
2018-06-25T04:55:49.214Z,102176.05
2018-06-25T04:58:18.266Z,102174.34
2018-06-25T05:00:47.569Z,102180.06
2018-06-25T05:03:16.622Z,102175.66
2018-06-25T05:05:45.488Z,102180.78
2018-06-25T05:08:14.697Z,102178.80
2018-06-25T05:10:43.611Z,102174.58
2018-06-25T05:13:12.843Z,102176.70
2018-06-25T05:15:41.986Z,102170.94
2018-06-25T05:18:10.793Z,102177.72
2018-06-25T05:20:40.095Z,102176.88
2018-06-25T05:23:09.224Z,102174.89
2018-06-25T05:25:38.315Z,102177.05
2018-06-25T05:28:07.676Z,102174.45
2018-06-25T05:30:36.488Z,102179.56
2018-06-25T05:33:05.897Z,102184.93
2018-06-25T05:35:35.352Z,102191.17
2018-06-25T05:38:04.535Z,102191.05
2018-06-25T05:40:33.889Z,102189.05
2018-06-25T05:43:02.771Z,102193.94
2018-06-25T05:45:31.931Z,102199.04
2018-06-25T05:48:01.147Z,102205.56
2018-06-25T05:50:30.236Z,102207.75
2018-06-25T05:53:06.183Z,102206.34
2018-06-25T05:55:35.380Z,102204.09
2018-06-25T05:58:04.251Z,102201.89
2018-06-25T06:00:33.437Z,102207.80
2018-06-25T06:03:02.899Z,102205.27
2018-06-25T06:05:32.036Z,102205.53
2018-06-25T06:08:00.995Z,102212.89
2018-06-25T06:10:30.203Z,102215.09
2018-06-25T06:12:59.374Z,102219.23
2018-06-25T06:15:28.860Z,102221.05
2018-06-25T06:17:58.161Z,102227.34
2018-06-25T06:20:27.099Z,102238.19
2018-06-25T06:22:55.933Z,102239.45
2018-06-25T06:25:25.352Z,102241.08
2018-06-25T06:27:54.545Z,102240.52
2018-06-25T06:30:23.384Z,102234.77
2018-06-25T06:32:52.636Z,102228.43
2018-06-25T06:35:21.519Z,102226.21
2018-06-25T06:37:50.632Z,102239.20
2018-06-25T06:40:19.687Z,102235.06
2018-06-25T06:42:48.519Z,102230.80
2018-06-25T06:45:17.366Z,102237.81
2018-06-25T06:47:46.237Z,102226.77
2018-06-25T06:50:15.564Z,102235.19
2018-06-25T06:52:44.735Z,102235.08
2018-06-25T06:55:14.009Z,102231.13
2018-06-25T06:57:42.891Z,102233.09
2018-06-25T07:00:11.694Z,102231.13
2018-06-25T07:02:40.926Z,102227.20
2018-06-25T07:05:09.848Z,102234.86
2018-06-25T07:07:39.483Z,102233.18
2018-06-25T07:10:08.633Z,102243.75
2018-06-25T07:12:37.753Z,102246.55
2018-06-25T07:15:06.955Z,102245.80
2018-06-25T07:17:36.399Z,102248.38
2018-06-25T07:20:05.574Z,102243.17
2018-06-25T07:22:34.318Z,102245.23
2018-06-25T07:25:04.142Z,102244.08
2018-06-25T07:27:33.280Z,102238.19
2018-06-25T07:30:02.437Z,102245.95
2018-06-25T07:32:32.215Z,102237.19
2018-06-25T07:35:01.124Z,102240.55
2018-06-25T07:37:30.394Z,102245.26
2018-06-25T07:39:59.575Z,102252.25
2018-06-25T07:42:28.416Z,102244.70
2018-06-25T07:44:57.582Z,102248.81
2018-06-25T07:47:27.136Z,102259.33
2018-06-25T07:49:55.933Z,102257.22
2018-06-25T07:52:24.725Z,102257.89
2018-06-25T07:54:53.786Z,102259.72
2018-06-25T07:57:22.994Z,102259.09
2018-06-25T07:59:52.097Z,102264.24
2018-06-25T08:02:21.681Z,102265.55
2018-06-25T08:04:51.812Z,102263.77
2018-06-25T08:07:20.654Z,102265.23
2018-06-25T08:09:49.667Z,102266.42
2018-06-25T08:12:18.773Z,102269.77
2018-06-25T08:14:47.620Z,102270.48
2018-06-25T08:17:16.449Z,102274.63
2018-06-25T08:19:45.792Z,102266.34
2018-06-25T08:22:14.962Z,102269.33
2018-06-25T08:24:44.425Z,102271.37
2018-06-25T08:27:13.458Z,102278.80
2018-06-25T08:29:42.588Z,102273.85
2018-06-25T08:32:11.378Z,102277.96
2018-06-25T08:34:40.152Z,102281.28
2018-06-25T08:37:09.332Z,102282.99
2018-06-25T08:39:38.953Z,102280.38
2018-06-25T08:42:08.089Z,102279.39
2018-06-25T08:44:37.196Z,102283.09
2018-06-25T08:47:06.327Z,102272.55
2018-06-25T08:49:35.078Z,102274.91
2018-06-25T08:52:04.558Z,102272.95
2018-06-25T08:54:34.077Z,102276.59
2018-06-25T08:57:03.636Z,102288.18
2018-06-25T08:59:32.455Z,102279.28
2018-06-25T09:02:01.968Z,102282.74
2018-06-25T09:04:30.828Z,102290.75
2018-06-25T09:06:59.696Z,102289.76
2018-06-25T09:09:28.884Z,102290.35
2018-06-25T09:11:57.950Z,102296.56
2018-06-25T09:14:27.149Z,102286.78
2018-06-25T09:16:56.028Z,102292.77
2018-06-25T09:19:25.160Z,102289.95
2018-06-25T09:21:54.515Z,102286.38
2018-06-25T09:24:23.649Z,102291.91
2018-06-25T09:26:52.807Z,102301.11
2018-06-25T09:29:22.075Z,102294.64
2018-06-25T09:31:51.422Z,102288.25
2018-06-25T09:34:25.418Z,102292.06
2018-06-25T09:36:54.956Z,102293.33
2018-06-25T09:39:24.043Z,102298.42
2018-06-25T09:41:53.290Z,102302.88
2018-06-25T09:44:22.772Z,102303.41
2018-06-25T09:46:52.494Z,102299.44
2018-06-25T09:49:21.754Z,102300.05
2018-06-25T09:51:50.819Z,102299.83
2018-06-25T09:54:19.634Z,102309.79
2018-06-25T09:56:49.269Z,102313.26
2018-06-25T09:59:18.177Z,102312.55
2018-06-25T10:01:46.988Z,102315.20
2018-06-25T10:04:16.280Z,102318.42
2018-06-25T10:06:45.389Z,102311.04
2018-06-25T10:09:14.576Z,102316.45
2018-06-25T10:11:43.999Z,102316.73
2018-06-25T10:14:13.569Z,102316.83
2018-06-25T10:16:42.427Z,102315.04
2018-06-25T10:19:11.540Z,102314.66
2018-06-25T10:21:40.930Z,102313.11
2018-06-25T10:24:09.979Z,102309.46
2018-06-25T10:26:38.824Z,102313.41
2018-06-25T10:29:08.062Z,102320.05
2018-06-25T10:31:37.714Z,102321.17
2018-06-25T10:34:06.731Z,102321.77
2018-06-25T10:36:35.813Z,102322.83
2018-06-25T10:39:06.956Z,102325.41
2018-06-25T10:41:36.449Z,102310.63
2018-06-25T10:44:05.991Z,102310.68
2018-06-25T10:46:35.413Z,102318.97
2018-06-25T10:49:04.481Z,102318.36
2018-06-25T10:51:33.593Z,102308.23
2018-06-25T10:54:02.514Z,102322.21
2018-06-25T10:56:31.332Z,102319.45
2018-06-25T10:59:00.526Z,102325.69
2018-06-25T11:01:29.545Z,102321.08
2018-06-25T11:03:58.356Z,102309.67
2018-06-25T11:06:27.249Z,102304.84
2018-06-25T11:08:56.170Z,102312.13
2018-06-25T11:11:25.816Z,102308.98
2018-06-25T11:13:54.936Z,102307.91
2018-06-25T11:16:23.991Z,102302.41
2018-06-25T11:18:53.049Z,102317.83
2018-06-25T11:21:22.204Z,102308.53
2018-06-25T11:23:50.941Z,102308.14
2018-06-25T11:26:20.496Z,102310.01
2018-06-25T11:28:49.565Z,102309.08
2018-06-25T11:31:18.555Z,102311.98
2018-06-25T11:33:47.936Z,102303.91
2018-06-25T11:36:16.754Z,102311.72
2018-06-25T11:38:45.926Z,102312.46
2018-06-25T11:41:14.794Z,102310.78
2018-06-25T11:43:43.929Z,102318.11
2018-06-25T11:46:13.036Z,102315.26
2018-06-25T11:48:41.867Z,102322.34
2018-06-25T11:51:11.244Z,102318.72
2018-06-25T11:53:40.992Z,102315.38
2018-06-25T11:56:10.039Z,102321.08
2018-06-25T11:58:38.823Z,102323.44
2018-06-25T12:01:08.147Z,102324.52
2018-06-25T12:03:37.364Z,102323.52
2018-06-25T12:06:06.452Z,102322.34
2018-06-25T12:08:35.507Z,102319.37
2018-06-25T12:11:04.693Z,102315.98
2018-06-25T12:13:33.411Z,102321.00
2018-06-25T12:16:02.419Z,102314.72
2018-06-25T12:18:31.490Z,102312.79
2018-06-25T12:21:00.862Z,102309.66
2018-06-25T12:23:29.924Z,102311.74
2018-06-25T12:25:59.198Z,102308.98
2018-06-25T12:28:28.598Z,102317.26
2018-06-25T12:30:57.832Z,102301.89
2018-06-25T12:33:26.812Z,102316.23
2018-06-25T12:35:55.883Z,102308.89
2018-06-25T12:38:24.950Z,102304.84
2018-06-25T12:40:54.019Z,102312.45
2018-06-25T12:43:23.642Z,102304.96
2018-06-25T12:45:52.660Z,102313.02
2018-06-25T12:48:21.577Z,102307.16
2018-06-25T12:50:50.536Z,102312.11
2018-06-25T12:53:19.822Z,102310.14
2018-06-25T12:55:48.877Z,102318.04
2018-06-25T12:58:17.964Z,102320.33
2018-06-25T13:00:46.721Z,102317.95
2018-06-25T13:03:15.763Z,102319.56
2018-06-25T13:05:44.866Z,102317.30
2018-06-25T13:08:14.056Z,102318.55
2018-06-25T13:10:43.229Z,102320.86
2018-06-25T13:13:12.428Z,102325.53
2018-06-25T13:15:41.315Z,102324.74
2018-06-25T13:18:10.552Z,102326.81
2018-06-25T13:20:39.566Z,102332.91
2018-06-25T13:23:08.649Z,102327.98
2018-06-25T13:25:38.107Z,102327.27
2018-06-25T13:28:07.399Z,102330.59
2018-06-25T13:30:36.955Z,102326.34
2018-06-25T13:33:06.131Z,102329.55
2018-06-25T13:35:34.956Z,102324.89
2018-06-25T13:38:03.815Z,102324.38
2018-06-25T13:40:33.473Z,102313.41
2018-06-25T13:43:02.508Z,102316.12
2018-06-25T13:45:31.370Z,102315.55
2018-06-25T13:48:00.904Z,102316.45
2018-06-25T13:50:30.040Z,102316.08
2018-06-25T13:52:58.935Z,102319.09
2018-06-25T13:55:28.039Z,102314.15
2018-06-25T13:57:57.205Z,102318.37
2018-06-25T14:00:26.258Z,102322.84
2018-06-25T14:02:55.485Z,102316.94
2018-06-25T14:05:24.624Z,102311.77
2018-06-25T14:07:54.821Z,102316.86
2018-06-25T14:10:23.870Z,102316.38
2018-06-25T14:12:53.060Z,102318.57
2018-06-25T14:15:21.949Z,102315.70
2018-06-25T14:17:50.962Z,102320.20
2018-06-25T14:20:19.772Z,102325.16
2018-06-25T14:22:48.946Z,102314.33
2018-06-25T14:25:17.767Z,102319.00
2018-06-25T14:27:52.065Z,102317.77
2018-06-25T14:30:26.307Z,102318.40
2018-06-25T14:33:00.121Z,102318.00
2018-06-25T14:35:29.765Z,102314.14
2018-06-25T14:37:58.987Z,102316.22
2018-06-25T14:40:27.901Z,102316.12
2018-06-25T14:45:50.139Z,102317.51
2018-06-25T14:48:19.253Z,102314.60
2018-06-25T14:50:48.132Z,102308.58
2018-06-25T14:53:17.272Z,102318.89
2018-06-25T14:55:46.145Z,102318.10
2018-06-25T14:58:14.976Z,102311.97
2018-06-25T15:00:43.782Z,102315.50
2018-06-25T15:03:13.407Z,102315.66
2018-06-25T15:05:42.799Z,102315.53
2018-06-25T15:08:11.624Z,102317.15
2018-06-25T15:10:40.833Z,102311.97
2018-06-25T15:13:10.665Z,102316.05
2018-06-25T15:15:40.232Z,102310.00
2018-06-25T15:18:09.632Z,102309.50
2018-06-25T15:20:38.452Z,102312.34
2018-06-25T15:23:07.590Z,102311.50
2018-06-25T15:25:36.834Z,102317.99
2018-06-25T15:28:05.999Z,102316.34
2018-06-25T15:30:35.044Z,102316.90
2018-06-25T15:33:04.138Z,102319.55
2018-06-25T15:35:32.988Z,102315.95
2018-06-25T15:38:02.204Z,102320.02
2018-06-25T15:40:31.512Z,102319.19
2018-06-25T15:43:00.378Z,102328.14
2018-06-25T15:45:29.496Z,102315.43
2018-06-25T15:47:58.713Z,102314.84
2018-06-25T15:50:27.471Z,102321.52
2018-06-25T15:52:56.378Z,102310.93
2018-06-25T15:55:25.741Z,102319.84
2018-06-25T15:57:55.148Z,102318.34
2018-06-25T16:00:24.529Z,102315.77
2018-06-25T16:02:53.450Z,102321.36
2018-06-25T16:05:22.638Z,102323.52
2018-06-25T16:07:52.076Z,102312.27
2018-06-25T16:10:21.053Z,102317.63
2018-06-25T16:12:50.455Z,102317.41
2018-06-25T16:15:19.310Z,102322.86
2018-06-25T16:17:48.615Z,102324.83
2018-06-25T16:20:17.770Z,102321.75
2018-06-25T16:22:47.428Z,102317.41
2018-06-25T16:25:18.847Z,102321.52
2018-06-25T16:27:47.769Z,102322.92
2018-06-25T16:30:17.223Z,102322.58
2018-06-25T16:32:46.245Z,102316.82
2018-06-25T16:35:15.426Z,102312.53
2018-06-25T16:37:45.369Z,102310.80
2018-06-25T16:40:15.576Z,102313.17
2018-06-25T16:42:44.883Z,102320.41
2018-06-25T16:45:14.090Z,102322.22
2018-06-25T16:47:43.694Z,102333.88
2018-06-25T16:50:12.610Z,102327.90
2018-06-25T16:52:41.770Z,102338.95
2018-06-25T16:55:11.254Z,102332.48
2018-06-25T16:57:40.093Z,102329.64
2018-06-25T17:00:08.893Z,102336.83
2018-06-25T17:02:37.757Z,102335.59
2018-06-25T17:05:06.626Z,102345.14
2018-06-25T17:07:35.505Z,102347.84
2018-06-25T17:10:05.035Z,102343.20
2018-06-25T17:12:33.848Z,102347.19
2018-06-25T17:15:02.655Z,102338.70
2018-06-25T17:17:31.800Z,102338.91
2018-06-25T17:20:01.286Z,102340.80
2018-06-25T17:22:30.463Z,102339.98
2018-06-25T17:24:59.365Z,102341.53
2018-06-25T17:27:28.563Z,102343.90
2018-06-25T17:29:57.397Z,102346.23
2018-06-25T17:32:26.484Z,102350.78
2018-06-25T17:34:55.338Z,102354.27
2018-06-25T17:37:25.273Z,102352.64
2018-06-25T17:39:54.554Z,102347.05
2018-06-25T17:42:23.674Z,102355.55
2018-06-25T17:44:52.890Z,102350.05
2018-06-25T17:47:22.079Z,102349.95
2018-06-25T17:49:50.981Z,102351.81
2018-06-25T17:52:20.163Z,102345.19
2018-06-25T17:54:49.198Z,102345.50
2018-06-25T17:57:18.103Z,102347.67
2018-06-25T17:59:46.960Z,102352.34
2018-06-25T18:02:51.460Z,102347.17
2018-06-25T18:05:28.299Z,102347.72
2018-06-25T18:07:57.432Z,102349.13
2018-06-25T18:10:26.578Z,102357.58
2018-06-25T18:12:55.475Z,102354.00
2018-06-25T18:15:24.683Z,102350.61
2018-06-25T18:17:54.383Z,102362.41
2018-06-25T18:20:23.881Z,102361.03
2018-06-25T18:22:53.338Z,102359.05
2018-06-25T18:25:22.227Z,102355.91
2018-06-25T18:27:51.460Z,102359.88
2018-06-25T18:30:20.525Z,102355.19
2018-06-25T18:33:08.924Z,102355.58
2018-06-25T18:35:37.846Z,102351.13
2018-06-25T18:38:06.890Z,102352.51
2018-06-25T18:40:35.959Z,102350.10
2018-06-25T18:43:05.390Z,102350.10
2018-06-25T18:45:34.533Z,102347.75
2018-06-25T18:48:03.375Z,102347.88
2018-06-25T18:50:32.357Z,102349.12
2018-06-25T18:53:01.427Z,102348.89
2018-06-25T18:55:30.667Z,102354.92
2018-06-25T18:57:59.839Z,102354.00
2018-06-25T19:00:29.023Z,102356.42
2018-06-25T19:02:58.214Z,102357.76
2018-06-25T19:05:27.646Z,102353.97
2018-06-25T19:07:57.231Z,102360.75
2018-06-25T19:10:26.465Z,102364.03
2018-06-25T19:12:55.693Z,102366.63
2018-06-25T19:15:24.830Z,102363.47
2018-06-25T19:17:53.655Z,102360.59
2018-06-25T19:20:22.947Z,102366.33
2018-06-25T19:22:51.745Z,102371.39
2018-06-25T19:25:20.604Z,102364.77
2018-06-25T19:27:49.455Z,102372.42
2018-06-25T19:30:18.844Z,102371.17
2018-06-25T19:32:47.625Z,102368.54
2018-06-25T19:35:16.476Z,102374.18
2018-06-25T19:37:45.692Z,102376.97
2018-06-25T19:40:14.783Z,102377.28
2018-06-25T19:42:44.063Z,102385.02
2018-06-25T19:45:13.320Z,102391.12
2018-06-25T19:47:43.004Z,102390.28
2018-06-25T19:50:11.809Z,102385.69
2018-06-25T19:52:41.226Z,102390.06
2018-06-25T19:55:10.340Z,102388.38
2018-06-25T19:57:39.416Z,102384.53
2018-06-25T20:00:08.345Z,102395.48
2018-06-25T20:02:37.200Z,102394.52
2018-06-25T20:05:06.546Z,102396.37
2018-06-25T20:07:35.906Z,102397.22
2018-06-25T20:10:05.278Z,102398.84
2018-06-25T20:12:34.099Z,102403.36
2018-06-25T20:15:02.982Z,102403.15
2018-06-25T20:17:32.326Z,102401.44
2018-06-25T20:20:01.788Z,102404.47
2018-06-25T20:22:31.285Z,102403.78
2018-06-25T20:25:00.128Z,102400.04
2018-06-25T20:27:29.219Z,102403.91
2018-06-25T20:29:58.645Z,102398.23
2018-06-25T20:32:27.840Z,102403.34
2018-06-25T20:34:56.684Z,102408.11
2018-06-25T20:37:26.695Z,102409.11
2018-06-25T20:39:56.532Z,102407.78
2018-06-25T20:42:27.304Z,102410.56
2018-06-25T20:44:57.245Z,102409.16
2018-06-25T20:47:27.237Z,102411.58
2018-06-25T20:49:57.487Z,102406.95
2018-06-25T20:52:27.572Z,102401.97
2018-06-25T20:54:57.433Z,102397.73
2018-06-25T20:57:27.584Z,102399.41
2018-06-25T20:59:57.040Z,102402.70
2018-06-25T21:02:25.943Z,102404.03
2018-06-25T21:04:55.047Z,102401.52
2018-06-25T21:07:23.852Z,102401.48
2018-06-25T21:09:52.945Z,102402.76
2018-06-25T21:12:22.718Z,102407.70
2018-06-25T21:14:51.575Z,102407.09
2018-06-25T21:17:20.441Z,102401.05
2018-06-25T21:19:49.459Z,102398.05
2018-06-25T21:22:18.868Z,102398.00
2018-06-25T21:24:47.734Z,102405.90
2018-06-25T21:27:17.216Z,102398.27
2018-06-25T21:29:46.039Z,102396.98
2018-06-25T21:32:15.176Z,102397.91
2018-06-25T21:34:44.033Z,102391.39
2018-06-25T21:37:12.833Z,102398.04
2018-06-25T21:39:41.706Z,102392.58
2018-06-25T21:42:10.956Z,102395.16
2018-06-25T21:44:40.138Z,102401.77
2018-06-25T21:47:08.988Z,102395.81
2018-06-25T21:49:38.058Z,102390.92
2018-06-25T21:52:06.971Z,102387.89
2018-06-25T21:54:36.717Z,102401.51
2018-06-25T21:57:05.821Z,102393.92
2018-06-25T21:59:35.020Z,102397.56
2018-06-25T22:02:03.958Z,102400.30
2018-06-25T22:04:33.722Z,102399.84
2018-06-25T22:07:02.725Z,102397.42
2018-06-25T22:09:32.074Z,102396.33
2018-06-25T22:12:01.299Z,102390.94
2018-06-25T22:14:30.203Z,102397.28
2018-06-25T22:16:59.570Z,102396.86
2018-06-25T22:19:28.565Z,102393.36
2018-06-25T22:21:57.478Z,102395.56
2018-06-25T22:24:26.654Z,102399.43
2018-06-25T22:26:55.491Z,102390.74
2018-06-25T22:29:24.740Z,102387.48
2018-06-25T22:31:54.276Z,102385.27
2018-06-25T22:34:23.126Z,102394.25
2018-06-25T22:36:52.295Z,102392.63
2018-06-25T22:39:21.522Z,102399.22
2018-06-25T22:41:50.369Z,102394.06
2018-06-25T22:44:19.381Z,102390.67
2018-06-25T22:46:48.441Z,102390.13
2018-06-25T22:49:17.427Z,102389.03
2018-06-25T22:51:46.244Z,102386.30
2018-06-25T22:54:15.525Z,102388.33
2018-06-25T22:56:44.320Z,102396.22
2018-06-25T22:59:13.122Z,102388.06
2018-06-25T23:01:42.234Z,102390.73
2018-06-25T23:04:11.099Z,102388.00
2018-06-25T23:06:39.929Z,102391.03
2018-06-25T23:09:11.178Z,102386.70
2018-06-25T23:11:40.248Z,102389.97
2018-06-25T23:14:09.392Z,102388.30
2018-06-25T23:16:38.575Z,102388.80
2018-06-25T23:19:07.745Z,102380.52
2018-06-25T23:21:36.690Z,102391.70
2018-06-25T23:24:05.497Z,102389.56
2018-06-25T23:26:34.383Z,102391.20
2018-06-25T23:29:03.463Z,102390.20
2018-06-25T23:31:32.614Z,102384.54
2018-06-25T23:34:01.529Z,102383.77
2018-06-25T23:36:30.680Z,102382.14
2018-06-25T23:38:59.520Z,102381.84
2018-06-25T23:41:28.385Z,102380.48
2018-06-25T23:43:57.166Z,102384.54
2018-06-25T23:46:26.018Z,102385.61
2018-06-25T23:48:55.278Z,102389.97
2018-06-25T23:51:24.086Z,102389.20
2018-06-25T23:53:53.358Z,102389.53
2018-06-25T23:56:22.947Z,102396.37
2018-06-25T23:58:51.831Z,102387.59
